createdAt,value
2019-06-20T00:00:32.225Z,2.93
2019-06-20T00:03:00.822Z,3.50
2019-06-20T00:05:29.461Z,3.17
2019-06-20T00:07:58.092Z,3.20
2019-06-20T00:10:26.688Z,3.57
2019-06-20T00:13:00.425Z,3.53
2019-06-20T00:15:25.624Z,4.00
2019-06-20T00:17:54.126Z,3.57
2019-06-20T00:20:22.715Z,3.60
2019-06-20T00:22:51.242Z,4.17
2019-06-20T00:25:19.788Z,4.30
2019-06-20T00:27:48.304Z,3.40
2019-06-20T00:30:17.067Z,3.53
2019-06-20T00:32:45.588Z,4.07
2019-06-20T00:35:14.258Z,3.70
2019-06-20T00:37:42.864Z,4.50
2019-06-20T00:40:12.723Z,4.33
2019-06-20T00:42:41.252Z,4.00
2019-06-20T00:45:10.326Z,4.10
2019-06-20T00:47:38.961Z,3.90
2019-06-20T00:50:07.841Z,3.93
2019-06-20T00:52:36.337Z,4.33
2019-06-20T00:55:07.948Z,3.90
2019-06-20T00:57:36.477Z,4.57
2019-06-20T01:00:09.049Z,3.63
2019-06-20T01:02:37.579Z,4.10
2019-06-20T01:05:06.545Z,3.90
2019-06-20T01:07:35.081Z,4.40
2019-06-20T01:10:04.911Z,4.37
2019-06-20T01:12:33.434Z,3.80
2019-06-20T01:15:02.047Z,3.77
2019-06-20T01:17:30.566Z,3.90
2019-06-20T01:19:59.097Z,3.67
2019-06-20T01:22:27.634Z,4.13
2019-06-20T01:24:56.160Z,4.23
2019-06-20T01:27:24.700Z,3.83
2019-06-20T01:29:53.267Z,3.90
2019-06-20T01:32:21.755Z,3.90
2019-06-20T01:34:50.273Z,4.30
2019-06-20T01:37:18.871Z,4.20
2019-06-20T01:39:47.400Z,4.07
2019-06-20T01:42:16.094Z,4.20
2019-06-20T01:44:44.629Z,4.63
2019-06-20T01:47:13.235Z,3.93
2019-06-20T01:49:41.780Z,4.10
2019-06-20T01:52:10.316Z,4.30
2019-06-20T01:54:38.864Z,4.20
2019-06-20T01:57:07.463Z,4.70
2019-06-20T01:59:35.990Z,3.90
2019-06-20T02:02:04.748Z,4.40
2019-06-20T02:04:33.345Z,4.57
2019-06-20T02:07:01.883Z,3.97
2019-06-20T02:09:30.472Z,3.93
2019-06-20T02:11:58.976Z,4.03
2019-06-20T02:14:27.509Z,3.83
2019-06-20T02:16:56.072Z,4.60
2019-06-20T02:19:24.677Z,4.33
2019-06-20T02:21:53.221Z,3.93
2019-06-20T02:24:21.755Z,4.13
2019-06-20T02:26:50.281Z,4.30
2019-06-20T02:29:18.835Z,4.30
2019-06-20T02:31:47.371Z,4.83
2019-06-20T02:34:15.879Z,4.10
2019-06-20T02:36:44.413Z,4.27
2019-06-20T02:39:12.978Z,3.67
2019-06-20T02:41:41.564Z,4.07
2019-06-20T02:44:28.472Z,3.97
2019-06-20T02:46:40.430Z,4.40
2019-06-20T02:49:09.013Z,4.20
2019-06-20T02:51:37.769Z,3.90
2019-06-20T02:54:06.321Z,3.80
2019-06-20T02:56:35.131Z,3.70
2019-06-20T02:59:03.875Z,3.50
2019-06-20T03:01:32.418Z,4.10
2019-06-20T03:04:00.974Z,3.83
2019-06-20T03:06:29.564Z,4.00
2019-06-20T03:08:58.082Z,4.03
2019-06-20T03:11:26.621Z,3.60
2019-06-20T03:13:55.142Z,3.63
2019-06-20T03:16:23.677Z,4.20
2019-06-20T03:18:52.216Z,4.30
2019-06-20T03:21:20.745Z,4.40
2019-06-20T03:23:49.265Z,4.23
2019-06-20T03:26:17.877Z,4.40
2019-06-20T03:28:46.402Z,4.13
2019-06-20T03:31:14.921Z,4.33
2019-06-20T03:33:43.729Z,4.57
2019-06-20T03:36:12.263Z,3.90
2019-06-20T03:38:40.798Z,4.40
2019-06-20T03:41:09.313Z,3.70
2019-06-20T03:43:37.931Z,4.60
2019-06-20T03:46:06.539Z,4.47
2019-06-20T03:48:35.083Z,4.47
2019-06-20T03:51:03.627Z,3.73
2019-06-20T03:53:32.225Z,4.03
2019-06-20T03:56:00.751Z,3.90
2019-06-20T03:58:29.291Z,3.90
2019-06-20T04:00:57.825Z,3.87
2019-06-20T04:03:26.345Z,4.20
2019-06-20T04:05:54.878Z,3.57
2019-06-20T04:08:23.405Z,3.77
2019-06-20T04:10:52.240Z,7.43
2019-06-20T04:13:20.791Z,5.50
2019-06-20T04:15:49.337Z,4.07
2019-06-20T04:18:18.008Z,3.23
2019-06-20T04:20:46.533Z,3.00
2019-06-20T04:23:15.087Z,4.17
2019-06-20T04:25:43.647Z,5.03
2019-06-20T04:28:12.146Z,4.57
2019-06-20T04:30:40.720Z,3.60
2019-06-20T04:33:09.220Z,3.93
2019-06-20T04:35:37.741Z,4.37
2019-06-20T04:38:06.277Z,4.10
2019-06-20T04:40:34.899Z,4.20
2019-06-20T04:43:03.464Z,4.00
2019-06-20T04:45:35.503Z,3.70
2019-06-20T04:48:03.911Z,4.13
2019-06-20T04:50:32.484Z,3.97
2019-06-20T04:53:01.018Z,3.93
2019-06-20T04:55:29.606Z,5.00
2019-06-20T04:57:58.154Z,4.03
2019-06-20T05:00:26.822Z,4.10
2019-06-20T05:02:55.342Z,3.97
2019-06-20T05:05:23.939Z,4.40
2019-06-20T05:07:52.472Z,4.20
2019-06-20T05:10:20.978Z,4.80
2019-06-20T05:12:51.136Z,4.20
2019-06-20T05:15:19.781Z,4.07
2019-06-20T05:17:48.314Z,4.50
2019-06-20T05:20:16.933Z,4.60
2019-06-20T05:22:45.485Z,4.63
2019-06-20T05:25:14.341Z,4.90
2019-06-20T05:27:42.876Z,4.87
2019-06-20T05:30:12.429Z,4.80
2019-06-20T05:32:40.976Z,4.60
2019-06-20T05:35:10.054Z,4.03
2019-06-20T05:37:38.737Z,4.40
2019-06-20T05:40:10.425Z,4.03
2019-06-20T05:42:38.934Z,4.47
2019-06-20T05:45:07.992Z,4.70
2019-06-20T05:47:36.539Z,4.77
2019-06-20T05:50:09.820Z,4.87
2019-06-20T05:52:38.447Z,4.30
2019-06-20T05:55:10.031Z,4.27
2019-06-20T05:57:38.546Z,5.00
2019-06-20T06:00:10.882Z,4.83
2019-06-20T06:02:40.278Z,5.23
2019-06-20T06:05:09.166Z,5.23
2019-06-20T06:07:37.766Z,5.27
2019-06-20T06:10:07.954Z,5.80
2019-06-20T06:12:36.513Z,5.27
2019-06-20T06:15:09.842Z,5.47
2019-06-20T06:17:38.718Z,5.30
2019-06-20T06:20:08.997Z,5.67
2019-06-20T06:22:37.606Z,4.70
2019-06-20T06:25:06.868Z,5.40
2019-06-20T06:27:35.542Z,5.50
2019-06-20T06:30:06.669Z,5.13
2019-06-20T06:32:39.919Z,5.67
2019-06-20T06:35:08.831Z,5.50
2019-06-20T06:37:37.445Z,5.10
2019-06-20T06:40:08.176Z,5.37
2019-06-20T06:42:36.725Z,5.43
2019-06-20T06:45:08.972Z,4.80
2019-06-20T06:47:37.754Z,4.83
2019-06-20T06:50:07.335Z,4.23
2019-06-20T06:52:36.005Z,4.90
2019-06-20T06:55:05.266Z,4.37
2019-06-20T06:57:33.877Z,4.47
2019-06-20T07:00:02.577Z,4.27
2019-06-20T07:02:31.244Z,4.20
2019-06-20T07:04:59.747Z,4.63
2019-06-20T07:07:28.264Z,4.47
2019-06-20T07:09:56.807Z,5.63
2019-06-20T07:12:25.403Z,4.33
2019-06-20T07:14:53.942Z,4.47
2019-06-20T07:17:22.485Z,4.43
2019-06-20T07:19:51.013Z,3.97
2019-06-20T07:22:19.568Z,3.70
2019-06-20T07:24:48.133Z,3.70
2019-06-20T07:27:16.656Z,3.57
2019-06-20T07:29:45.246Z,3.57
2019-06-20T07:32:13.826Z,3.63
2019-06-20T07:34:42.331Z,3.37
2019-06-20T07:37:10.863Z,3.17
2019-06-20T07:39:39.494Z,3.77
2019-06-20T07:42:08.008Z,3.47
2019-06-20T07:44:36.543Z,4.17
2019-06-20T07:47:16.937Z,4.37
2019-06-20T07:49:35.334Z,4.47
2019-06-20T07:52:03.882Z,4.57
2019-06-20T07:54:32.400Z,4.33
2019-06-20T07:57:00.957Z,4.40
2019-06-20T07:59:29.476Z,4.77
2019-06-20T08:01:58.022Z,4.03
2019-06-20T08:04:26.642Z,4.27
2019-06-20T08:06:55.194Z,4.03
2019-06-20T08:09:23.719Z,4.20
2019-06-20T08:11:52.266Z,4.37
2019-06-20T08:14:20.914Z,3.93
2019-06-20T08:16:49.469Z,3.90
2019-06-20T08:19:18.102Z,3.60
2019-06-20T08:21:46.999Z,3.67
2019-06-20T08:24:15.557Z,3.50
2019-06-20T08:26:44.156Z,3.40
2019-06-20T08:29:20.638Z,3.60
2019-06-20T08:31:42.970Z,3.60
2019-06-20T08:34:11.526Z,3.50
2019-06-20T08:36:40.051Z,3.43
2019-06-20T08:39:10.298Z,3.97
2019-06-20T08:41:38.938Z,3.50
2019-06-20T08:44:07.698Z,3.10
2019-06-20T08:46:36.565Z,3.37
2019-06-20T08:49:05.824Z,3.10
2019-06-20T08:51:34.361Z,3.07
2019-06-20T08:54:03.423Z,3.43
2019-06-20T08:56:32.143Z,3.40
2019-06-20T08:59:00.752Z,3.23
2019-06-20T09:01:29.894Z,3.30
2019-06-20T09:03:58.694Z,3.07
2019-06-20T09:06:27.330Z,3.50
2019-06-20T09:08:56.728Z,3.23
2019-06-20T09:11:26.090Z,3.20
2019-06-20T09:13:55.437Z,3.30
2019-06-20T09:16:24.953Z,3.13
2019-06-20T09:18:54.916Z,3.07
2019-06-20T09:21:23.989Z,3.73
2019-06-20T09:23:54.053Z,3.43
2019-06-20T09:26:22.759Z,3.40
2019-06-20T09:28:52.728Z,3.30
2019-06-20T09:31:21.560Z,3.63
2019-06-20T09:33:52.149Z,3.50
2019-06-20T09:36:20.519Z,3.67
2019-06-20T09:38:49.067Z,3.57
2019-06-20T09:41:17.585Z,3.47
2019-06-20T09:43:46.111Z,3.73
2019-06-20T09:46:14.642Z,3.40
2019-06-20T09:48:43.162Z,3.77
2019-06-20T09:51:11.702Z,4.10
2019-06-20T09:53:40.241Z,3.97
2019-06-20T09:56:08.882Z,4.40
2019-06-20T09:58:37.482Z,5.40
2019-06-20T10:01:06.146Z,5.37
2019-06-20T10:03:34.679Z,5.60
2019-06-20T10:06:13.302Z,5.20
2019-06-20T10:08:33.528Z,5.73
2019-06-20T10:11:02.060Z,6.03
2019-06-20T10:13:32.818Z,5.43
2019-06-20T10:16:00.917Z,6.10
2019-06-20T10:18:29.491Z,5.60
2019-06-20T10:20:58.039Z,5.13
2019-06-20T10:23:26.552Z,6.00
2019-06-20T10:25:55.181Z,5.80
2019-06-20T10:28:23.773Z,4.83
2019-06-20T10:30:53.451Z,4.83
2019-06-20T10:33:22.023Z,5.27
2019-06-20T10:35:50.573Z,5.07
2019-06-20T10:38:19.107Z,4.93
2019-06-20T10:40:47.983Z,5.80
2019-06-20T10:43:16.575Z,6.50
2019-06-20T10:45:45.839Z,6.10
2019-06-20T10:48:14.422Z,6.07
2019-06-20T10:50:44.036Z,5.17
2019-06-20T10:53:12.834Z,5.50
2019-06-20T10:55:42.103Z,6.20
2019-06-20T10:58:11.662Z,6.27
2019-06-20T11:00:41.760Z,6.83
2019-06-20T11:03:10.653Z,6.70
2019-06-20T11:05:40.494Z,6.47
2019-06-20T11:08:09.541Z,8.23
2019-06-20T11:10:40.034Z,7.00
2019-06-20T11:13:08.818Z,6.67
2019-06-20T11:15:38.949Z,6.23
2019-06-20T11:18:08.081Z,6.10
2019-06-20T11:20:37.834Z,5.63
2019-06-20T11:23:07.172Z,6.37
2019-06-20T11:25:36.973Z,6.60
2019-06-20T11:28:06.026Z,8.03
2019-06-20T11:30:48.013Z,7.43
2019-06-20T11:33:05.358Z,7.77
2019-06-20T11:35:35.957Z,7.30
2019-06-20T11:38:04.742Z,7.07
2019-06-20T11:40:33.351Z,7.33
2019-06-20T11:43:01.882Z,6.90
2019-06-20T11:45:30.475Z,6.30
2019-06-20T11:47:59.010Z,7.03
2019-06-20T11:50:27.916Z,7.17
2019-06-20T11:52:56.506Z,6.00
2019-06-20T11:55:25.106Z,5.50
2019-06-20T11:57:53.663Z,5.97
2019-06-20T12:00:22.555Z,6.23
2019-06-20T12:02:51.118Z,6.40
2019-06-20T12:05:19.991Z,6.53
2019-06-20T12:07:50.018Z,6.53
2019-06-20T12:10:19.344Z,7.23
2019-06-20T12:12:49.155Z,13.10
2019-06-20T12:15:18.698Z,10.77
2019-06-20T12:17:47.463Z,6.47
2019-06-20T12:20:17.807Z,5.30
2019-06-20T12:22:46.681Z,4.87
2019-06-20T12:25:15.534Z,6.07
2019-06-20T12:27:45.460Z,6.30
2019-06-20T12:30:15.730Z,7.00
2019-06-20T12:32:44.694Z,5.97
2019-06-20T12:35:13.855Z,5.60
2019-06-20T12:37:42.705Z,7.17
2019-06-20T12:40:12.108Z,6.40
2019-06-20T12:42:41.810Z,6.67
2019-06-20T12:45:11.346Z,6.70
2019-06-20T12:47:40.582Z,6.40
2019-06-20T12:50:10.528Z,6.50
2019-06-20T12:52:40.715Z,6.53
2019-06-20T12:55:11.102Z,5.60
2019-06-20T12:57:40.363Z,6.17
2019-06-20T13:00:12.003Z,5.67
2019-06-20T13:02:42.038Z,5.80
2019-06-20T13:05:11.293Z,4.83
2019-06-20T13:07:40.718Z,5.37
2019-06-20T13:10:10.523Z,5.30
2019-06-20T13:12:40.697Z,4.80
2019-06-20T13:15:09.797Z,4.40
2019-06-20T13:17:39.932Z,4.20
2019-06-20T13:20:10.164Z,5.00
2019-06-20T13:22:39.513Z,5.53
2019-06-20T13:25:09.175Z,5.20
2019-06-20T13:27:39.078Z,4.83
2019-06-20T13:30:08.387Z,4.93
2019-06-20T13:32:38.448Z,5.07
2019-06-20T13:35:08.632Z,4.20
2019-06-20T13:37:38.222Z,4.73
2019-06-20T13:40:11.323Z,4.50
2019-06-20T13:42:41.996Z,3.97
2019-06-20T13:45:21.483Z,4.80
2019-06-20T13:47:50.078Z,4.13
2019-06-20T13:50:19.154Z,3.97
2019-06-20T13:52:49.595Z,3.80
2019-06-20T13:55:18.256Z,3.73
2019-06-20T13:57:47.204Z,3.93
2019-06-20T14:00:17.591Z,3.73
2019-06-20T14:02:47.005Z,3.97
2019-06-20T14:05:16.969Z,3.63
2019-06-20T14:07:48.417Z,3.57
2019-06-20T14:10:16.561Z,3.73
2019-06-20T14:12:46.727Z,4.07
2019-06-20T14:15:15.726Z,3.80
2019-06-20T14:17:44.915Z,3.60
2019-06-20T14:20:14.105Z,3.80
2019-06-20T14:22:42.932Z,3.17
2019-06-20T14:25:12.020Z,3.30
2019-06-20T14:27:40.576Z,3.27
2019-06-20T14:30:09.729Z,3.57
2019-06-20T14:32:38.344Z,2.87
2019-06-20T14:35:07.052Z,3.10
2019-06-20T14:37:35.667Z,3.20
2019-06-20T14:40:07.509Z,2.70
2019-06-20T14:42:36.142Z,3.37
2019-06-20T14:45:08.041Z,3.60
2019-06-20T14:47:36.940Z,3.27
2019-06-20T14:50:09.528Z,3.20
2019-06-20T14:52:38.188Z,3.30
2019-06-20T14:55:07.872Z,3.30
2019-06-20T14:57:36.488Z,4.03
2019-06-20T15:00:07.063Z,3.73
2019-06-20T15:02:38.823Z,3.67
2019-06-20T15:05:16.994Z,3.33
2019-06-20T15:07:47.220Z,3.20
2019-06-20T15:10:17.014Z,3.60
2019-06-20T15:12:47.682Z,2.80
2019-06-20T15:15:16.299Z,3.47
2019-06-20T15:17:46.762Z,3.20
2019-06-20T15:20:15.657Z,3.13
2019-06-20T15:22:46.740Z,3.20
2019-06-20T15:25:15.182Z,3.40
2019-06-20T15:27:43.752Z,3.10
2019-06-20T15:30:12.423Z,3.00
2019-06-20T15:32:53.387Z,2.90
2019-06-20T15:35:11.406Z,2.93
2019-06-20T15:37:39.944Z,2.20
2019-06-20T15:40:08.621Z,2.33
2019-06-20T15:42:37.319Z,2.37
2019-06-20T15:45:07.184Z,2.33
2019-06-20T15:47:35.777Z,2.23
2019-06-20T15:50:06.870Z,2.23
2019-06-20T15:52:35.555Z,2.33
2019-06-20T15:55:05.560Z,2.20
2019-06-20T15:57:34.153Z,2.60
2019-06-20T16:00:02.963Z,2.20
2019-06-20T16:02:31.474Z,2.30
2019-06-20T16:05:00.016Z,2.10
2019-06-20T16:07:28.581Z,2.73
2019-06-20T16:09:57.155Z,2.80
2019-06-20T16:12:25.730Z,2.23
2019-06-20T16:14:54.252Z,2.70
2019-06-20T16:17:22.858Z,2.50
2019-06-20T16:19:51.393Z,2.40
2019-06-20T16:22:19.940Z,2.80
2019-06-20T16:24:48.463Z,2.67
2019-06-20T16:27:17.005Z,2.60
2019-06-20T16:29:45.549Z,2.73
2019-06-20T16:32:14.071Z,2.50
2019-06-20T16:34:42.613Z,3.33
2019-06-20T16:37:11.138Z,4.27
2019-06-20T16:39:39.751Z,3.37
2019-06-20T16:42:08.284Z,3.17
2019-06-20T16:44:36.818Z,2.80
2019-06-20T16:47:05.416Z,2.57
2019-06-20T16:49:33.988Z,2.60
2019-06-20T16:52:02.661Z,3.80
2019-06-20T16:54:31.183Z,2.93
2019-06-20T16:56:59.730Z,3.20
2019-06-20T16:59:28.370Z,2.70
2019-06-20T17:01:56.967Z,2.97
2019-06-20T17:04:25.525Z,3.20
2019-06-20T17:06:54.165Z,2.90
2019-06-20T17:09:22.744Z,2.93
2019-06-20T17:11:51.253Z,2.90
2019-06-20T17:14:19.884Z,2.50
2019-06-20T17:16:48.567Z,2.77
2019-06-20T17:19:17.103Z,2.70
2019-06-20T17:21:45.676Z,3.00
2019-06-20T17:24:14.489Z,2.80
2019-06-20T17:26:42.230Z,2.70
2019-06-20T17:29:10.802Z,2.93
2019-06-20T17:31:39.521Z,2.93
2019-06-20T17:34:08.053Z,3.10
2019-06-20T17:36:36.683Z,2.60
2019-06-20T17:39:07.826Z,2.40
2019-06-20T17:41:36.487Z,2.37
2019-06-20T17:44:05.265Z,2.40
2019-06-20T17:46:33.789Z,2.33
2019-06-20T17:49:02.332Z,2.43
2019-06-20T17:51:30.933Z,2.80
2019-06-20T17:53:59.565Z,3.70
2019-06-20T17:56:28.178Z,2.73
2019-06-20T17:58:56.711Z,2.70
2019-06-20T18:01:25.236Z,2.60
2019-06-20T18:04:10.146Z,2.30
2019-06-20T18:06:26.946Z,1.97
2019-06-20T18:08:55.666Z,2.20
2019-06-20T18:11:24.446Z,3.07
2019-06-20T18:13:53.222Z,3.10
2019-06-20T18:16:33.556Z,3.20
2019-06-20T18:19:03.482Z,2.50
2019-06-20T18:21:31.935Z,2.43
2019-06-20T18:24:02.054Z,2.70
2019-06-20T18:26:30.650Z,2.77
2019-06-20T18:28:59.206Z,2.77
2019-06-20T18:31:27.728Z,2.10
2019-06-20T18:33:56.257Z,1.80
2019-06-20T18:36:24.790Z,1.73
2019-06-20T18:38:53.298Z,1.93
2019-06-20T18:41:21.843Z,2.27
2019-06-20T18:43:50.387Z,1.77
2019-06-20T18:46:18.909Z,2.10
2019-06-20T18:48:47.489Z,1.57
2019-06-20T18:51:15.996Z,1.80
2019-06-20T18:53:44.524Z,1.40
2019-06-20T18:56:12.453Z,1.87
2019-06-20T18:58:40.971Z,1.83
2019-06-20T19:01:09.502Z,2.00
2019-06-20T19:03:38.071Z,1.80
2019-06-20T19:06:06.663Z,1.50
2019-06-20T19:08:35.198Z,1.90
2019-06-20T19:11:03.899Z,1.73
2019-06-20T19:13:32.596Z,1.77
2019-06-20T19:16:01.362Z,1.90
2019-06-20T19:18:29.874Z,2.00
2019-06-20T19:20:58.431Z,1.80
2019-06-20T19:23:27.092Z,1.80
2019-06-20T19:25:55.711Z,1.90
2019-06-20T19:28:24.338Z,2.10
2019-06-20T19:30:53.210Z,2.23
2019-06-20T19:33:21.792Z,2.40
2019-06-20T19:35:50.317Z,1.90
2019-06-20T19:38:18.875Z,2.10
2019-06-20T19:40:49.271Z,1.90
2019-06-20T19:43:17.862Z,1.90
2019-06-20T19:45:46.723Z,2.20
2019-06-20T19:48:15.975Z,2.40
2019-06-20T19:50:44.933Z,2.57
2019-06-20T19:53:13.803Z,2.00
2019-06-20T19:55:42.706Z,2.40
2019-06-20T19:58:11.305Z,2.30
2019-06-20T20:00:39.827Z,2.40
2019-06-20T20:03:08.593Z,2.00
2019-06-20T20:05:37.257Z,2.10
2019-06-20T20:08:06.574Z,3.83
2019-06-20T20:10:48.731Z,2.40
2019-06-20T20:13:18.188Z,2.10
2019-06-20T20:15:47.099Z,2.37
2019-06-20T20:18:16.344Z,2.67
2019-06-20T20:20:47.649Z,3.20
2019-06-20T20:23:16.498Z,2.90
2019-06-20T20:25:45.187Z,2.67
2019-06-20T20:28:13.790Z,3.00
2019-06-20T20:30:42.556Z,2.17
2019-06-20T20:33:11.231Z,2.63
2019-06-20T20:35:39.775Z,2.70
2019-06-20T20:38:08.400Z,2.80
2019-06-20T20:40:36.924Z,2.43
2019-06-20T20:43:05.892Z,2.40
2019-06-20T20:45:34.436Z,2.30
2019-06-20T20:48:03.038Z,2.10
2019-06-20T20:50:31.758Z,2.20
2019-06-20T20:53:02.986Z,2.27
2019-06-20T20:55:31.509Z,1.90
2019-06-20T20:58:00.048Z,2.10
2019-06-20T21:00:34.432Z,2.37
2019-06-20T21:03:02.971Z,2.83
2019-06-20T21:05:31.572Z,2.50
2019-06-20T21:08:00.102Z,2.93
2019-06-20T21:10:28.740Z,3.07
2019-06-20T21:12:57.262Z,3.10
2019-06-20T21:15:25.933Z,2.43
2019-06-20T21:17:55.776Z,2.90
2019-06-20T21:20:24.706Z,2.80
2019-06-20T21:22:56.058Z,2.80
2019-06-20T21:25:24.599Z,2.97
2019-06-20T21:27:53.119Z,2.87
2019-06-20T21:30:21.907Z,2.97
2019-06-20T21:32:50.500Z,2.60
2019-06-20T21:35:19.087Z,3.17
2019-06-20T21:37:47.641Z,2.83
2019-06-20T21:40:16.326Z,2.80
2019-06-20T21:42:44.855Z,2.70
2019-06-20T21:45:29.573Z,2.90
2019-06-20T21:47:53.778Z,2.70
2019-06-20T21:50:22.458Z,2.50
2019-06-20T21:52:50.980Z,2.50
2019-06-20T21:55:19.653Z,2.30
2019-06-20T21:57:48.299Z,1.97
2019-06-20T22:00:38.967Z,2.03
2019-06-20T22:03:07.793Z,2.23
2019-06-20T22:05:36.364Z,2.03
2019-06-20T22:08:05.680Z,1.90
2019-06-20T22:10:34.358Z,1.83
2019-06-20T22:13:03.061Z,2.07
2019-06-20T22:15:31.665Z,2.10
2019-06-20T22:18:00.329Z,1.93
2019-06-20T22:20:29.183Z,1.90
2019-06-20T22:22:57.646Z,1.77
2019-06-20T22:25:26.195Z,1.80
2019-06-20T22:27:54.776Z,2.07
2019-06-20T22:30:44.639Z,1.90
2019-06-20T22:33:13.164Z,1.90
2019-06-20T22:35:45.673Z,2.57
2019-06-20T22:38:13.274Z,2.50
2019-06-20T22:40:41.844Z,2.40
2019-06-20T22:43:10.374Z,2.17
2019-06-20T22:45:39.009Z,2.33
2019-06-20T22:48:07.843Z,2.23
2019-06-20T22:50:36.531Z,2.00
2019-06-20T22:53:05.130Z,2.37
2019-06-20T22:55:33.968Z,2.17
2019-06-20T22:58:02.687Z,2.23
2019-06-20T23:00:31.370Z,1.83
2019-06-20T23:02:59.899Z,1.93
2019-06-20T23:05:28.483Z,2.00
2019-06-20T23:07:56.993Z,2.30
2019-06-20T23:10:25.485Z,2.50
2019-06-20T23:12:53.973Z,2.60
2019-06-20T23:15:22.696Z,2.67
2019-06-20T23:17:51.236Z,2.40
2019-06-20T23:20:19.923Z,2.53
2019-06-20T23:22:48.444Z,2.50
2019-06-20T23:25:17.318Z,2.40
2019-06-20T23:27:45.785Z,2.90
2019-06-20T23:30:16.055Z,2.60
2019-06-20T23:32:44.555Z,2.33
2019-06-20T23:35:13.279Z,2.20
2019-06-20T23:37:41.815Z,2.33
2019-06-20T23:40:11.744Z,2.67
2019-06-20T23:42:40.257Z,3.00
2019-06-20T23:45:09.908Z,2.60
2019-06-20T23:47:38.390Z,2.70
2019-06-20T23:50:09.986Z,2.70
2019-06-20T23:52:46.196Z,2.87
2019-06-20T23:55:14.701Z,3.47
2019-06-20T23:57:43.197Z,3.20
